sensor_id;sensor_type;location;lat;lon;timestamp;P1;durP1;ratioP1;P2;durP2;ratioP2
60867;SDS011;46702;48.370;10.794;2023-03-01T00:01:02;16.55;;;9.48;;
60867;SDS011;46702;48.370;10.794;2023-03-01T00:03:30;21.13;;;10.43;;
60867;SDS011;46702;48.370;10.794;2023-03-01T00:05:55;19.95;;;10.02;;
60867;SDS011;46702;48.370;10.794;2023-03-01T00:08:21;17.80;;;9.27;;
60867;SDS011;46702;48.370;10.794;2023-03-01T00:10:47;13.77;;;8.73;;
60867;SDS011;46702;48.370;10.794;2023-03-01T00:13:12;15.32;;;9.95;;
60867;SDS011;46702;48.370;10.794;2023-03-01T00:15:41;17.63;;;10.35;;
60867;SDS011;46702;48.370;10.794;2023-03-01T00:20:33;15.07;;;9.77;;
60867;SDS011;46702;48.370;10.794;2023-03-01T00:22:59;17.35;;;9.48;;
60867;SDS011;46702;48.370;10.794;2023-03-01T00:25:24;17.05;;;9.68;;
60867;SDS011;46702;48.370;10.794;2023-03-01T00:27:50;18.15;;;10.48;;
60867;SDS011;46702;48.370;10.794;2023-03-01T00:30:16;13.73;;;9.18;;
60867;SDS011;46702;48.370;10.794;2023-03-01T00:32:41;19.13;;;9.85;;
60867;SDS011;46702;48.370;10.794;2023-03-01T00:35:07;18.10;;;10.90;;
60867;SDS011;46702;48.370;10.794;2023-03-01T00:37:33;19.05;;;9.63;;
60867;SDS011;46702;48.370;10.794;2023-03-01T00:39:58;19.38;;;10.63;;
60867;SDS011;46702;48.370;10.794;2023-03-01T00:42:24;15.30;;;9.48;;
60867;SDS011;46702;48.370;10.794;2023-03-01T00:44:49;19.60;;;10.02;;
60867;SDS011;46702;48.370;10.794;2023-03-01T00:47:15;17.17;;;10.27;;
60867;SDS011;46702;48.370;10.794;2023-03-01T00:49:41;19.30;;;9.18;;
60867;SDS011;46702;48.370;10.794;2023-03-01T00:52:06;17.33;;;9.63;;
60867;SDS011;46702;48.370;10.794;2023-03-01T00:54:32;23.77;;;10.32;;
60867;SDS011;46702;48.370;10.794;2023-03-01T00:56:58;19.02;;;10.63;;
60867;SDS011;46702;48.370;10.794;2023-03-01T00:59:23;19.42;;;10.60;;
60867;SDS011;46702;48.370;10.794;2023-03-01T01:01:49;15.02;;;9.05;;
60867;SDS011;46702;48.370;10.794;2023-03-01T01:04:14;17.70;;;9.43;;
60867;SDS011;46702;48.370;10.794;2023-03-01T01:06:44;17.17;;;9.25;;
60867;SDS011;46702;48.370;10.794;2023-03-01T01:09:12;24.15;;;10.23;;
60867;SDS011;46702;48.370;10.794;2023-03-01T01:11:47;16.42;;;9.80;;
60867;SDS011;46702;48.370;10.794;2023-03-01T01:14:14;16.67;;;8.80;;
60867;SDS011;46702;48.370;10.794;2023-03-01T01:16:40;18.08;;;9.77;;
60867;SDS011;46702;48.370;10.794;2023-03-01T01:19:06;17.25;;;9.90;;
60867;SDS011;46702;48.370;10.794;2023-03-01T01:21:31;18.98;;;9.73;;
60867;SDS011;46702;48.370;10.794;2023-03-01T01:23:57;17.88;;;10.57;;
60867;SDS011;46702;48.370;10.794;2023-03-01T01:26:25;19.02;;;9.73;;
60867;SDS011;46702;48.370;10.794;2023-03-01T01:28:52;19.15;;;9.40;;
60867;SDS011;46702;48.370;10.794;2023-03-01T01:31:18;21.25;;;11.82;;
60867;SDS011;46702;48.370;10.794;2023-03-01T01:33:44;23.85;;;10.20;;
60867;SDS011;46702;48.370;10.794;2023-03-01T01:36:11;21.17;;;11.55;;
60867;SDS011;46702;48.370;10.794;2023-03-01T01:38:37;21.60;;;11.07;;
60867;SDS011;46702;48.370;10.794;2023-03-01T01:41:04;20.02;;;10.18;;
60867;SDS011;46702;48.370;10.794;2023-03-01T01:43:33;21.65;;;10.73;;
60867;SDS011;46702;48.370;10.794;2023-03-01T01:46:02;21.25;;;10.57;;
60867;SDS011;46702;48.370;10.794;2023-03-01T01:48:51;16.42;;;9.57;;
60867;SDS011;46702;48.370;10.794;2023-03-01T01:51:21;21.55;;;10.52;;
60867;SDS011;46702;48.370;10.794;2023-03-01T01:53:52;16.42;;;9.82;;
60867;SDS011;46702;48.370;10.794;2023-03-01T01:56:23;15.88;;;9.02;;
60867;SDS011;46702;48.370;10.794;2023-03-01T01:58:50;15.35;;;10.45;;
60867;SDS011;46702;48.370;10.794;2023-03-01T02:01:17;15.35;;;9.02;;
60867;SDS011;46702;48.370;10.794;2023-03-01T02:03:43;19.35;;;10.73;;
60867;SDS011;46702;48.370;10.794;2023-03-01T02:06:12;16.35;;;10.07;;
60867;SDS011;46702;48.370;10.794;2023-03-01T02:09:02;17.33;;;9.77;;
60867;SDS011;46702;48.370;10.794;2023-03-01T02:11:32;20.90;;;10.23;;
60867;SDS011;46702;48.370;10.794;2023-03-01T02:13:59;17.67;;;10.10;;
60867;SDS011;46702;48.370;10.794;2023-03-01T02:16:25;19.80;;;11.88;;
60867;SDS011;46702;48.370;10.794;2023-03-01T02:18:51;20.75;;;10.70;;
60867;SDS011;46702;48.370;10.794;2023-03-01T02:21:34;18.35;;;10.30;;
60867;SDS011;46702;48.370;10.794;2023-03-01T02:24:13;21.38;;;10.70;;
60867;SDS011;46702;48.370;10.794;2023-03-01T02:27:01;17.55;;;8.55;;
60867;SDS011;46702;48.370;10.794;2023-03-01T02:29:27;20.15;;;11.90;;
60867;SDS011;46702;48.370;10.794;2023-03-01T02:31:54;15.65;;;9.65;;
60867;SDS011;46702;48.370;10.794;2023-03-01T02:34:23;22.08;;;10.98;;
60867;SDS011;46702;48.370;10.794;2023-03-01T02:36:53;16.15;;;9.10;;
60867;SDS011;46702;48.370;10.794;2023-03-01T02:39:36;20.80;;;10.18;;
60867;SDS011;46702;48.370;10.794;2023-03-01T02:42:15;19.27;;;10.73;;
60867;SDS011;46702;48.370;10.794;2023-03-01T02:44:46;21.45;;;10.10;;
60867;SDS011;46702;48.370;10.794;2023-03-01T02:47:13;17.15;;;9.85;;
60867;SDS011;46702;48.370;10.794;2023-03-01T02:49:39;17.45;;;10.45;;
60867;SDS011;46702;48.370;10.794;2023-03-01T02:54:50;22.42;;;11.65;;
60867;SDS011;46702;48.370;10.794;2023-03-01T02:57:26;21.55;;;12.13;;
60867;SDS011;46702;48.370;10.794;2023-03-01T02:59:54;21.33;;;11.40;;
60867;SDS011;46702;48.370;10.794;2023-03-01T03:02:26;22.73;;;11.90;;
60867;SDS011;46702;48.370;10.794;2023-03-01T03:05:03;24.30;;;12.07;;
60867;SDS011;46702;48.370;10.794;2023-03-01T03:07:41;22.15;;;12.35;;
60867;SDS011;46702;48.370;10.794;2023-03-01T03:10:10;22.75;;;10.20;;
60867;SDS011;46702;48.370;10.794;2023-03-01T03:12:38;19.42;;;10.88;;
60867;SDS011;46702;48.370;10.794;2023-03-01T03:15:04;23.67;;;12.93;;
60867;SDS011;46702;48.370;10.794;2023-03-01T03:17:36;20.38;;;10.80;;
60867;SDS011;46702;48.370;10.794;2023-03-01T03:20:04;20.33;;;11.38;;
60867;SDS011;46702;48.370;10.794;2023-03-01T03:22:31;23.58;;;12.38;;
60867;SDS011;46702;48.370;10.794;2023-03-01T03:24:59;18.63;;;10.65;;
60867;SDS011;46702;48.370;10.794;2023-03-01T03:27:24;22.42;;;11.25;;
60867;SDS011;46702;48.370;10.794;2023-03-01T03:29:50;21.88;;;11.27;;
60867;SDS011;46702;48.370;10.794;2023-03-01T03:32:16;22.25;;;12.20;;
60867;SDS011;46702;48.370;10.794;2023-03-01T03:34:41;20.60;;;11.50;;
60867;SDS011;46702;48.370;10.794;2023-03-01T03:37:07;20.73;;;12.77;;
60867;SDS011;46702;48.370;10.794;2023-03-01T03:39:52;19.70;;;11.07;;
60867;SDS011;46702;48.370;10.794;2023-03-01T03:42:19;23.35;;;11.98;;
60867;SDS011;46702;48.370;10.794;2023-03-01T03:44:46;24.10;;;12.25;;
60867;SDS011;46702;48.370;10.794;2023-03-01T03:47:12;18.98;;;11.48;;
60867;SDS011;46702;48.370;10.794;2023-03-01T03:49:38;20.33;;;11.88;;
60867;SDS011;46702;48.370;10.794;2023-03-01T03:52:03;24.08;;;12.60;;
60867;SDS011;46702;48.370;10.794;2023-03-01T03:54:29;23.33;;;11.05;;
60867;SDS011;46702;48.370;10.794;2023-03-01T03:56:55;23.77;;;12.10;;
60867;SDS011;46702;48.370;10.794;2023-03-01T03:59:20;19.13;;;10.45;;
60867;SDS011;46702;48.370;10.794;2023-03-01T04:01:46;25.30;;;13.80;;
60867;SDS011;46702;48.370;10.794;2023-03-01T04:04:11;18.30;;;10.55;;
60867;SDS011;46702;48.370;10.794;2023-03-01T04:06:38;21.15;;;11.73;;
60867;SDS011;46702;48.370;10.794;2023-03-01T04:09:03;19.25;;;10.98;;
60867;SDS011;46702;48.370;10.794;2023-03-01T04:11:29;20.27;;;11.32;;
60867;SDS011;46702;48.370;10.794;2023-03-01T04:13:56;21.38;;;12.00;;
60867;SDS011;46702;48.370;10.794;2023-03-01T04:16:23;20.17;;;10.95;;
60867;SDS011;46702;48.370;10.794;2023-03-01T04:18:50;31.67;;;12.18;;
60867;SDS011;46702;48.370;10.794;2023-03-01T04:21:15;21.20;;;10.85;;
60867;SDS011;46702;48.370;10.794;2023-03-01T04:23:41;20.40;;;11.43;;
60867;SDS011;46702;48.370;10.794;2023-03-01T04:26:07;20.08;;;10.98;;
60867;SDS011;46702;48.370;10.794;2023-03-01T04:28:34;21.55;;;11.88;;
60867;SDS011;46702;48.370;10.794;2023-03-01T04:31:03;21.88;;;12.57;;
60867;SDS011;46702;48.370;10.794;2023-03-01T04:33:38;19.50;;;11.15;;
60867;SDS011;46702;48.370;10.794;2023-03-01T04:36:14;19.00;;;11.27;;
60867;SDS011;46702;48.370;10.794;2023-03-01T04:38:42;20.98;;;9.68;;
60867;SDS011;46702;48.370;10.794;2023-03-01T04:41:12;18.45;;;10.48;;
60867;SDS011;46702;48.370;10.794;2023-03-01T04:43:39;18.40;;;9.98;;
60867;SDS011;46702;48.370;10.794;2023-03-01T04:46:06;21.92;;;11.35;;
60867;SDS011;46702;48.370;10.794;2023-03-01T04:48:34;28.20;;;10.98;;
60867;SDS011;46702;48.370;10.794;2023-03-01T04:51:01;18.30;;;10.10;;
60867;SDS011;46702;48.370;10.794;2023-03-01T04:53:27;20.52;;;10.77;;
60867;SDS011;46702;48.370;10.794;2023-03-01T04:55:56;21.13;;;11.32;;
60867;SDS011;46702;48.370;10.794;2023-03-01T05:00:48;17.60;;;9.48;;
60867;SDS011;46702;48.370;10.794;2023-03-01T05:03:14;20.27;;;10.63;;
60867;SDS011;46702;48.370;10.794;2023-03-01T05:05:43;20.92;;;11.70;;
60867;SDS011;46702;48.370;10.794;2023-03-01T05:08:10;17.27;;;9.27;;
60867;SDS011;46702;48.370;10.794;2023-03-01T05:10:45;20.10;;;10.32;;
60867;SDS011;46702;48.370;10.794;2023-03-01T05:13:14;15.13;;;9.15;;
60867;SDS011;46702;48.370;10.794;2023-03-01T05:15:46;18.85;;;10.13;;
60867;SDS011;46702;48.370;10.794;2023-03-01T05:18:13;21.45;;;11.10;;
60867;SDS011;46702;48.370;10.794;2023-03-01T05:20:39;19.13;;;12.73;;
60867;SDS011;46702;48.370;10.794;2023-03-01T05:23:05;16.60;;;9.57;;
60867;SDS011;46702;48.370;10.794;2023-03-01T05:25:31;21.70;;;10.70;;
60867;SDS011;46702;48.370;10.794;2023-03-01T05:28:02;20.80;;;10.77;;
60867;SDS011;46702;48.370;10.794;2023-03-01T05:30:30;17.90;;;10.10;;
60867;SDS011;46702;48.370;10.794;2023-03-01T05:32:57;22.67;;;11.52;;
60867;SDS011;46702;48.370;10.794;2023-03-01T05:35:23;25.17;;;11.38;;
60867;SDS011;46702;48.370;10.794;2023-03-01T05:37:49;18.65;;;9.80;;
60867;SDS011;46702;48.370;10.794;2023-03-01T05:40:18;20.27;;;10.95;;
60867;SDS011;46702;48.370;10.794;2023-03-01T05:42:47;21.88;;;12.57;;
60867;SDS011;46702;48.370;10.794;2023-03-01T05:45:14;20.52;;;11.02;;
60867;SDS011;46702;48.370;10.794;2023-03-01T05:47:42;21.33;;;12.02;;
60867;SDS011;46702;48.370;10.794;2023-03-01T05:50:13;23.65;;;13.55;;
60867;SDS011;46702;48.370;10.794;2023-03-01T05:52:44;17.63;;;9.25;;
60867;SDS011;46702;48.370;10.794;2023-03-01T05:55:10;23.23;;;11.32;;
60867;SDS011;46702;48.370;10.794;2023-03-01T05:57:36;22.17;;;12.13;;
60867;SDS011;46702;48.370;10.794;2023-03-01T06:00:02;21.70;;;11.70;;
60867;SDS011;46702;48.370;10.794;2023-03-01T06:02:28;20.13;;;11.15;;
60867;SDS011;46702;48.370;10.794;2023-03-01T06:04:54;22.05;;;10.05;;
60867;SDS011;46702;48.370;10.794;2023-03-01T06:07:20;24.55;;;13.35;;
60867;SDS011;46702;48.370;10.794;2023-03-01T06:09:46;26.08;;;11.63;;
60867;SDS011;46702;48.370;10.794;2023-03-01T06:12:11;23.15;;;11.52;;
60867;SDS011;46702;48.370;10.794;2023-03-01T06:14:37;24.30;;;11.95;;
60867;SDS011;46702;48.370;10.794;2023-03-01T06:17:03;22.48;;;12.07;;
60867;SDS011;46702;48.370;10.794;2023-03-01T06:19:28;19.42;;;9.52;;
60867;SDS011;46702;48.370;10.794;2023-03-01T06:21:54;20.83;;;12.45;;
60867;SDS011;46702;48.370;10.794;2023-03-01T06:24:20;24.58;;;12.27;;
60867;SDS011;46702;48.370;10.794;2023-03-01T06:26:45;24.52;;;13.43;;
60867;SDS011;46702;48.370;10.794;2023-03-01T06:29:11;24.83;;;12.77;;
60867;SDS011;46702;48.370;10.794;2023-03-01T06:31:37;27.83;;;12.80;;
60867;SDS011;46702;48.370;10.794;2023-03-01T06:34:02;23.27;;;12.60;;
60867;SDS011;46702;48.370;10.794;2023-03-01T06:36:28;24.85;;;12.60;;
60867;SDS011;46702;48.370;10.794;2023-03-01T06:38:53;24.00;;;13.38;;
60867;SDS011;46702;48.370;10.794;2023-03-01T06:41:19;25.58;;;12.48;;
60867;SDS011;46702;48.370;10.794;2023-03-01T06:43:45;22.27;;;11.82;;
60867;SDS011;46702;48.370;10.794;2023-03-01T06:46:10;21.55;;;12.55;;
60867;SDS011;46702;48.370;10.794;2023-03-01T06:48:36;25.08;;;12.38;;
60867;SDS011;46702;48.370;10.794;2023-03-01T06:51:01;28.00;;;14.00;;
60867;SDS011;46702;48.370;10.794;2023-03-01T06:53:28;20.52;;;11.23;;
60867;SDS011;46702;48.370;10.794;2023-03-01T06:55:55;24.08;;;13.60;;
60867;SDS011;46702;48.370;10.794;2023-03-01T06:58:21;23.95;;;10.45;;
60867;SDS011;46702;48.370;10.794;2023-03-01T07:00:46;23.92;;;11.75;;
60867;SDS011;46702;48.370;10.794;2023-03-01T07:03:12;30.02;;;14.15;;
60867;SDS011;46702;48.370;10.794;2023-03-01T07:05:37;28.08;;;14.27;;
60867;SDS011;46702;48.370;10.794;2023-03-01T07:08:03;19.75;;;9.70;;
60867;SDS011;46702;48.370;10.794;2023-03-01T07:10:29;26.42;;;13.65;;
60867;SDS011;46702;48.370;10.794;2023-03-01T07:12:58;23.38;;;12.30;;
60867;SDS011;46702;48.370;10.794;2023-03-01T07:15:24;25.67;;;13.23;;
60867;SDS011;46702;48.370;10.794;2023-03-01T07:17:51;24.50;;;12.95;;
60867;SDS011;46702;48.370;10.794;2023-03-01T07:20:17;26.80;;;14.32;;
60867;SDS011;46702;48.370;10.794;2023-03-01T07:22:44;22.80;;;13.20;;
60867;SDS011;46702;48.370;10.794;2023-03-01T07:25:09;26.17;;;13.35;;
60867;SDS011;46702;48.370;10.794;2023-03-01T07:27:36;34.22;;;16.42;;
60867;SDS011;46702;48.370;10.794;2023-03-01T07:30:02;30.02;;;15.20;;
60867;SDS011;46702;48.370;10.794;2023-03-01T07:32:28;26.40;;;13.90;;
60867;SDS011;46702;48.370;10.794;2023-03-01T07:34:54;27.60;;;14.77;;
60867;SDS011;46702;48.370;10.794;2023-03-01T07:37:19;25.08;;;14.18;;
60867;SDS011;46702;48.370;10.794;2023-03-01T07:39:45;28.45;;;13.52;;
60867;SDS011;46702;48.370;10.794;2023-03-01T07:42:10;28.45;;;15.32;;
60867;SDS011;46702;48.370;10.794;2023-03-01T07:44:36;28.42;;;13.55;;
60867;SDS011;46702;48.370;10.794;2023-03-01T07:47:02;29.98;;;13.35;;
60867;SDS011;46702;48.370;10.794;2023-03-01T07:49:28;28.25;;;14.13;;
60867;SDS011;46702;48.370;10.794;2023-03-01T07:51:54;30.35;;;15.20;;
60867;SDS011;46702;48.370;10.794;2023-03-01T07:54:20;27.02;;;14.77;;
60867;SDS011;46702;48.370;10.794;2023-03-01T07:56:45;28.65;;;13.85;;
60867;SDS011;46702;48.370;10.794;2023-03-01T07:59:11;30.20;;;14.10;;
60867;SDS011;46702;48.370;10.794;2023-03-01T08:01:36;28.17;;;14.70;;
60867;SDS011;46702;48.370;10.794;2023-03-01T08:04:02;25.90;;;13.82;;
60867;SDS011;46702;48.370;10.794;2023-03-01T08:06:29;27.35;;;14.02;;
60867;SDS011;46702;48.370;10.794;2023-03-01T08:08:55;24.98;;;12.68;;
60867;SDS011;46702;48.370;10.794;2023-03-01T08:11:21;27.52;;;15.77;;
60867;SDS011;46702;48.370;10.794;2023-03-01T08:13:47;29.48;;;14.85;;
60867;SDS011;46702;48.370;10.794;2023-03-01T08:16:14;31.58;;;15.95;;
60867;SDS011;46702;48.370;10.794;2023-03-01T08:18:40;27.00;;;14.23;;
60867;SDS011;46702;48.370;10.794;2023-03-01T08:21:08;29.05;;;14.68;;
60867;SDS011;46702;48.370;10.794;2023-03-01T08:23:35;23.58;;;12.23;;
60867;SDS011;46702;48.370;10.794;2023-03-01T08:26:05;26.23;;;13.38;;
60867;SDS011;46702;48.370;10.794;2023-03-01T08:28:32;20.80;;;11.93;;
60867;SDS011;46702;48.370;10.794;2023-03-01T08:30:58;26.52;;;14.02;;
60867;SDS011;46702;48.370;10.794;2023-03-01T08:33:24;22.73;;;12.85;;
60867;SDS011;46702;48.370;10.794;2023-03-01T08:35:49;26.25;;;13.95;;
60867;SDS011;46702;48.370;10.794;2023-03-01T08:38:15;19.17;;;10.23;;
60867;SDS011;46702;48.370;10.794;2023-03-01T08:40:41;27.00;;;14.40;;
60867;SDS011;46702;48.370;10.794;2023-03-01T08:43:06;26.77;;;14.68;;
60867;SDS011;46702;48.370;10.794;2023-03-01T08:45:32;27.27;;;12.55;;
60867;SDS011;46702;48.370;10.794;2023-03-01T08:47:57;24.00;;;12.88;;
60867;SDS011;46702;48.370;10.794;2023-03-01T08:50:23;28.13;;;14.20;;
60867;SDS011;46702;48.370;10.794;2023-03-01T08:52:49;24.05;;;12.73;;
60867;SDS011;46702;48.370;10.794;2023-03-01T08:55:15;25.73;;;13.68;;
60867;SDS011;46702;48.370;10.794;2023-03-01T09:00:09;26.38;;;12.98;;
60867;SDS011;46702;48.370;10.794;2023-03-01T09:02:39;24.73;;;13.75;;
60867;SDS011;46702;48.370;10.794;2023-03-01T09:05:05;23.92;;;12.70;;
60867;SDS011;46702;48.370;10.794;2023-03-01T09:07:31;21.38;;;12.13;;
60867;SDS011;46702;48.370;10.794;2023-03-01T09:09:56;20.35;;;11.98;;
60867;SDS011;46702;48.370;10.794;2023-03-01T09:12:22;30.17;;;14.10;;
60867;SDS011;46702;48.370;10.794;2023-03-01T09:14:49;25.45;;;15.25;;
60867;SDS011;46702;48.370;10.794;2023-03-01T09:17:15;20.20;;;12.35;;
60867;SDS011;46702;48.370;10.794;2023-03-01T09:19:41;22.35;;;11.18;;
60867;SDS011;46702;48.370;10.794;2023-03-01T09:22:06;21.20;;;11.68;;
60867;SDS011;46702;48.370;10.794;2023-03-01T09:24:32;25.60;;;14.70;;
60867;SDS011;46702;48.370;10.794;2023-03-01T09:26:57;26.02;;;12.90;;
60867;SDS011;46702;48.370;10.794;2023-03-01T09:29:23;24.80;;;13.57;;
60867;SDS011;46702;48.370;10.794;2023-03-01T09:31:49;21.80;;;11.48;;
60867;SDS011;46702;48.370;10.794;2023-03-01T09:34:14;25.70;;;12.38;;
60867;SDS011;46702;48.370;10.794;2023-03-01T09:36:44;22.60;;;12.40;;
60867;SDS011;46702;48.370;10.794;2023-03-01T09:39:11;19.95;;;10.63;;
60867;SDS011;46702;48.370;10.794;2023-03-01T09:46:56;19.02;;;9.63;;
60867;SDS011;46702;48.370;10.794;2023-03-01T09:49:30;19.45;;;11.35;;
60867;SDS011;46702;48.370;10.794;2023-03-01T09:52:04;23.40;;;11.13;;
60867;SDS011;46702;48.370;10.794;2023-03-01T09:54:46;17.83;;;10.32;;
60867;SDS011;46702;48.370;10.794;2023-03-01T09:57:18;21.85;;;10.90;;
60867;SDS011;46702;48.370;10.794;2023-03-01T10:00:02;24.15;;;12.98;;
60867;SDS011;46702;48.370;10.794;2023-03-01T10:05:43;21.30;;;10.85;;
60867;SDS011;46702;48.370;10.794;2023-03-01T10:11:13;19.55;;;11.30;;
60867;SDS011;46702;48.370;10.794;2023-03-01T10:14:01;22.02;;;11.05;;
60867;SDS011;46702;48.370;10.794;2023-03-01T10:16:40;22.13;;;12.93;;
60867;SDS011;46702;48.370;10.794;2023-03-01T10:19:15;19.98;;;11.32;;
60867;SDS011;46702;48.370;10.794;2023-03-01T10:21:47;22.33;;;11.80;;
60867;SDS011;46702;48.370;10.794;2023-03-01T10:24:16;24.35;;;12.70;;
60867;SDS011;46702;48.370;10.794;2023-03-01T10:29:31;24.73;;;14.82;;
60867;SDS011;46702;48.370;10.794;2023-03-01T10:32:04;26.00;;;15.02;;
60867;SDS011;46702;48.370;10.794;2023-03-01T10:37:17;25.17;;;13.23;;
60867;SDS011;46702;48.370;10.794;2023-03-01T10:42:33;27.13;;;15.00;;
60867;SDS011;46702;48.370;10.794;2023-03-01T10:48:08;23.88;;;12.95;;
60867;SDS011;46702;48.370;10.794;2023-03-01T10:50:45;20.60;;;11.40;;
60867;SDS011;46702;48.370;10.794;2023-03-01T10:53:22;24.90;;;15.65;;
60867;SDS011;46702;48.370;10.794;2023-03-01T10:56:01;27.75;;;15.18;;
60867;SDS011;46702;48.370;10.794;2023-03-01T10:58:29;28.40;;;14.48;;
60867;SDS011;46702;48.370;10.794;2023-03-01T11:01:00;24.40;;;14.07;;
60867;SDS011;46702;48.370;10.794;2023-03-01T11:03:31;24.50;;;12.63;;
60867;SDS011;46702;48.370;10.794;2023-03-01T11:06:03;30.15;;;15.70;;
60867;SDS011;46702;48.370;10.794;2023-03-01T11:08:45;23.70;;;13.75;;
60867;SDS011;46702;48.370;10.794;2023-03-01T11:11:14;26.83;;;14.77;;
60867;SDS011;46702;48.370;10.794;2023-03-01T11:19:27;22.85;;;12.40;;
60867;SDS011;46702;48.370;10.794;2023-03-01T11:22:03;22.10;;;11.30;;
60867;SDS011;46702;48.370;10.794;2023-03-01T11:24:38;23.20;;;11.23;;
60867;SDS011;46702;48.370;10.794;2023-03-01T11:27:19;23.08;;;13.40;;
60867;SDS011;46702;48.370;10.794;2023-03-01T11:30:00;24.88;;;13.52;;
60867;SDS011;46702;48.370;10.794;2023-03-01T11:32:33;22.83;;;13.13;;
60867;SDS011;46702;48.370;10.794;2023-03-01T11:35:14;20.52;;;11.30;;
60867;SDS011;46702;48.370;10.794;2023-03-01T11:45:40;25.27;;;15.97;;
60867;SDS011;46702;48.370;10.794;2023-03-01T11:50:42;21.73;;;12.43;;
60867;SDS011;46702;48.370;10.794;2023-03-01T11:55:50;25.50;;;14.48;;
60867;SDS011;46702;48.370;10.794;2023-03-01T12:30:18;21.08;;;11.77;;
60867;SDS011;46702;48.370;10.794;2023-03-01T12:38:42;21.33;;;12.07;;
60867;SDS011;46702;48.370;10.794;2023-03-01T12:41:26;21.60;;;12.00;;
60867;SDS011;46702;48.370;10.794;2023-03-01T12:44:02;19.98;;;10.90;;
60867;SDS011;46702;48.370;10.794;2023-03-01T12:49:15;23.45;;;12.00;;
60867;SDS011;46702;48.370;10.794;2023-03-01T12:51:49;23.00;;;12.18;;
60867;SDS011;46702;48.370;10.794;2023-03-01T12:54:45;19.73;;;11.43;;
60867;SDS011;46702;48.370;10.794;2023-03-01T12:57:14;21.38;;;11.45;;
60867;SDS011;46702;48.370;10.794;2023-03-01T13:00:25;19.92;;;11.27;;
60867;SDS011;46702;48.370;10.794;2023-03-01T13:11:00;22.80;;;10.80;;
60867;SDS011;46702;48.370;10.794;2023-03-01T13:13:28;19.65;;;11.77;;
60867;SDS011;46702;48.370;10.794;2023-03-01T13:15:55;19.65;;;12.13;;
60867;SDS011;46702;48.370;10.794;2023-03-01T13:42:28;20.27;;;10.98;;
60867;SDS011;46702;48.370;10.794;2023-03-01T13:48:02;23.15;;;11.45;;
60867;SDS011;46702;48.370;10.794;2023-03-01T13:50:37;24.45;;;12.50;;
60867;SDS011;46702;48.370;10.794;2023-03-01T13:53:10;24.45;;;11.65;;
60867;SDS011;46702;48.370;10.794;2023-03-01T13:55:41;25.13;;;11.48;;
60867;SDS011;46702;48.370;10.794;2023-03-01T14:00:54;20.02;;;11.43;;
60867;SDS011;46702;48.370;10.794;2023-03-01T14:03:21;20.58;;;11.35;;
60867;SDS011;46702;48.370;10.794;2023-03-01T14:08:31;19.00;;;11.15;;
60867;SDS011;46702;48.370;10.794;2023-03-01T14:19:20;19.83;;;10.98;;
60867;SDS011;46702;48.370;10.794;2023-03-01T14:22:13;20.63;;;12.55;;
60867;SDS011;46702;48.370;10.794;2023-03-01T14:24:52;18.15;;;9.77;;
60867;SDS011;46702;48.370;10.794;2023-03-01T14:27:21;22.98;;;11.93;;
60867;SDS011;46702;48.370;10.794;2023-03-01T14:29:55;18.20;;;10.93;;
60867;SDS011;46702;48.370;10.794;2023-03-01T14:32:29;20.30;;;11.40;;
60867;SDS011;46702;48.370;10.794;2023-03-01T14:34:57;16.35;;;9.60;;
60867;SDS011;46702;48.370;10.794;2023-03-01T14:37:25;22.83;;;11.87;;
60867;SDS011;46702;48.370;10.794;2023-03-01T14:39:53;21.38;;;11.75;;
60867;SDS011;46702;48.370;10.794;2023-03-01T14:42:20;19.40;;;11.20;;
60867;SDS011;46702;48.370;10.794;2023-03-01T14:44:47;18.48;;;10.40;;
60867;SDS011;46702;48.370;10.794;2023-03-01T14:47:26;23.48;;;12.93;;
60867;SDS011;46702;48.370;10.794;2023-03-01T14:49:58;16.35;;;10.98;;
60867;SDS011;46702;48.370;10.794;2023-03-01T14:52:44;21.30;;;11.50;;
60867;SDS011;46702;48.370;10.794;2023-03-01T14:55:16;18.25;;;11.13;;
60867;SDS011;46702;48.370;10.794;2023-03-01T14:57:44;20.77;;;12.38;;
60867;SDS011;46702;48.370;10.794;2023-03-01T15:00:16;17.92;;;10.18;;
60867;SDS011;46702;48.370;10.794;2023-03-01T15:02:43;17.88;;;10.55;;
60867;SDS011;46702;48.370;10.794;2023-03-01T15:05:09;18.23;;;10.65;;
60867;SDS011;46702;48.370;10.794;2023-03-01T15:07:38;18.45;;;11.80;;
60867;SDS011;46702;48.370;10.794;2023-03-01T15:10:06;20.25;;;12.60;;
60867;SDS011;46702;48.370;10.794;2023-03-01T15:12:41;23.00;;;11.95;;
60867;SDS011;46702;48.370;10.794;2023-03-01T15:15:26;18.75;;;11.45;;
60867;SDS011;46702;48.370;10.794;2023-03-01T15:17:56;21.27;;;11.48;;
60867;SDS011;46702;48.370;10.794;2023-03-01T15:20:26;23.08;;;12.43;;
60867;SDS011;46702;48.370;10.794;2023-03-01T15:22:54;18.73;;;10.35;;
60867;SDS011;46702;48.370;10.794;2023-03-01T15:25:22;19.65;;;10.80;;
60867;SDS011;46702;48.370;10.794;2023-03-01T15:27:50;19.90;;;12.05;;
60867;SDS011;46702;48.370;10.794;2023-03-01T15:30:38;19.90;;;10.30;;
60867;SDS011;46702;48.370;10.794;2023-03-01T15:33:20;16.30;;;10.48;;
60867;SDS011;46702;48.370;10.794;2023-03-01T15:35:57;22.52;;;12.38;;
60867;SDS011;46702;48.370;10.794;2023-03-01T15:41:03;18.80;;;10.93;;
60867;SDS011;46702;48.370;10.794;2023-03-01T15:43:50;18.27;;;10.70;;
60867;SDS011;46702;48.370;10.794;2023-03-01T15:48:54;22.40;;;10.13;;
60867;SDS011;46702;48.370;10.794;2023-03-01T15:51:22;18.95;;;10.15;;
60867;SDS011;46702;48.370;10.794;2023-03-01T15:53:53;17.60;;;8.73;;
60867;SDS011;46702;48.370;10.794;2023-03-01T15:56:19;17.65;;;9.38;;
60867;SDS011;46702;48.370;10.794;2023-03-01T15:58:45;19.25;;;10.20;;
60867;SDS011;46702;48.370;10.794;2023-03-01T16:01:14;19.17;;;10.40;;
60867;SDS011;46702;48.370;10.794;2023-03-01T16:03:41;17.25;;;9.80;;
60867;SDS011;46702;48.370;10.794;2023-03-01T16:06:08;17.08;;;9.80;;
60867;SDS011;46702;48.370;10.794;2023-03-01T16:08:35;18.10;;;9.85;;
60867;SDS011;46702;48.370;10.794;2023-03-01T16:11:02;15.15;;;9.20;;
60867;SDS011;46702;48.370;10.794;2023-03-01T16:13:30;15.57;;;9.13;;
60867;SDS011;46702;48.370;10.794;2023-03-01T16:15:56;16.65;;;9.20;;
60867;SDS011;46702;48.370;10.794;2023-03-01T16:18:22;16.15;;;9.80;;
60867;SDS011;46702;48.370;10.794;2023-03-01T16:20:48;17.90;;;10.52;;
60867;SDS011;46702;48.370;10.794;2023-03-01T16:23:14;17.35;;;9.73;;
60867;SDS011;46702;48.370;10.794;2023-03-01T16:25:40;18.77;;;9.38;;
60867;SDS011;46702;48.370;10.794;2023-03-01T16:28:06;18.38;;;9.85;;
60867;SDS011;46702;48.370;10.794;2023-03-01T16:30:35;14.85;;;9.50;;
60867;SDS011;46702;48.370;10.794;2023-03-01T16:33:02;19.63;;;9.73;;
60867;SDS011;46702;48.370;10.794;2023-03-01T16:35:31;18.35;;;10.27;;
60867;SDS011;46702;48.370;10.794;2023-03-01T16:37:57;16.77;;;9.20;;
60867;SDS011;46702;48.370;10.794;2023-03-01T16:40:26;20.92;;;10.40;;
60867;SDS011;46702;48.370;10.794;2023-03-01T16:42:54;17.48;;;9.90;;
60867;SDS011;46702;48.370;10.794;2023-03-01T16:45:24;17.23;;;9.93;;
60867;SDS011;46702;48.370;10.794;2023-03-01T16:47:51;17.25;;;9.13;;